Time;durP1;ratioP1;P1;durP2;ratioP2;P2;SDS_P1;SDS_P2;PMS_P1;PMS_P2;Temp;Humidity;BMP_temperature;BMP_pressure;BME280_temperature;BME280_humidity;BME280_pressure;Samples;Min_cycle;Max_cycle;Signal;HPM_P1;HPM_P2
2022/09/29 00:01:02;;;;;;;5.47;4.97;;;5.70;99.90;;;;;;5059660;28;20019;-73
2022/09/29 00:03:28;;;;;;;8.02;5.13;;;5.70;99.90;;;;;;5069021;28;20043;-74
2022/09/29 00:05:54;;;;;;;5.75;4.43;;;5.50;99.90;;;;;;5071264;28;20035;-74
2022/09/29 00:08:23;;;;;;;5.38;4.18;;;5.50;99.90;;;;;;5083206;28;20039;-74
2022/09/29 00:10:49;;;;;;;5.57;4.80;;;5.70;99.90;;;;;;5077601;28;20042;-75
2022/09/29 00:13:16;;;;;;;5.55;4.97;;;5.80;99.90;;;;;;5091167;28;20025;-74
2022/09/29 00:15:42;;;;;;;6.43;4.63;;;5.90;99.90;;;;;;5078085;28;20021;-74
2022/09/29 00:18:09;;;;;;;7.13;5.35;;;5.80;99.90;;;;;;5091109;28;20024;-75
2022/09/29 00:20:35;;;;;;;7.30;4.82;;;5.70;99.90;;;;;;5077710;28;20431;-76
2022/09/29 00:23:01;;;;;;;5.40;4.07;;;5.60;99.90;;;;;;5078036;28;20032;-75
2022/09/29 00:25:27;;;;;;;7.90;4.60;;;5.80;99.90;;;;;;5077661;28;20666;-75
2022/09/29 00:27:52;;;;;;;4.72;4.32;;;5.90;99.90;;;;;;5077187;28;20020;-74
2022/09/29 00:30:18;;;;;;;4.93;4.53;;;5.90;99.90;;;;;;5072692;28;20129;-73
2022/09/29 00:32:43;;;;;;;5.88;4.85;;;5.90;99.90;;;;;;5091077;28;20035;-74
2022/09/29 00:35:09;;;;;;;9.73;5.57;;;5.90;99.90;;;;;;5084852;28;20017;-73
2022/09/29 00:37:35;;;;;;;6.53;5.07;;;5.70;99.90;;;;;;5070543;28;20029;-74
2022/09/29 00:40:03;;;;;;;5.88;5.00;;;5.80;99.90;;;;;;5092151;28;20020;-74
2022/09/29 00:42:30;;;;;;;9.02;5.93;;;5.80;99.90;;;;;;5063457;28;20029;-75
2022/09/29 00:45:23;;;;;;;6.45;5.35;;;5.80;99.90;;;;;;5061603;28;20024;-73
2022/09/29 00:48:06;;;;;;;8.00;5.22;;;6.00;99.90;;;;;;5059068;28;20078;-73
2022/09/29 00:50:46;;;;;;;6.78;5.75;;;6.10;99.90;;;;;;5074446;28;20582;-73
2022/09/29 00:53:14;;;;;;;6.00;5.40;;;6.10;99.90;;;;;;5074310;28;20047;-74
2022/09/29 00:55:43;;;;;;;7.88;5.70;;;5.70;99.90;;;;;;5074161;28;20017;-73
2022/09/29 00:58:17;;;;;;;7.75;5.57;;;5.70;99.90;;;;;;5056301;28;20031;-73
2022/09/29 01:00:43;;;;;;;7.63;5.50;;;5.80;99.90;;;;;;5074238;28;20028;-73
2022/09/29 01:03:13;;;;;;;6.65;5.60;;;5.90;99.90;;;;;;5084663;28;20024;-74
2022/09/29 01:05:45;;;;;;;8.68;6.30;;;5.90;99.90;;;;;;5078494;28;20123;-75
2022/09/29 01:08:26;;;;;;;6.88;5.45;;;5.80;99.90;;;;;;5085328;28;20020;-74
2022/09/29 01:10:52;;;;;;;6.15;5.55;;;5.60;99.90;;;;;;5073948;28;20081;-73
2022/09/29 01:13:19;;;;;;;5.75;5.00;;;5.50;99.90;;;;;;5083149;28;20029;-73
2022/09/29 01:15:45;;;;;;;5.93;5.20;;;5.60;99.90;;;;;;5087803;28;20159;-75
2022/09/29 01:18:10;;;;;;;6.10;5.45;;;5.70;99.90;;;;;;5084858;28;20548;-73
2022/09/29 01:20:47;;;;;;;8.40;7.40;;;5.70;99.90;;;;;;5080817;28;20509;-73
2022/09/29 01:23:30;;;;;;;8.00;6.82;;;5.80;99.90;;;;;;5075954;28;20477;-74
2022/09/29 01:26:05;;;;;;;9.75;8.75;;;5.80;99.90;;;;;;5069899;28;20039;-74
2022/09/29 01:28:42;;;;;;;11.40;10.10;;;5.90;99.90;;;;;;5080090;28;20024;-74
2022/09/29 01:31:15;;;;;;;13.05;10.55;;;6.10;99.90;;;;;;5083696;28;20027;-74
2022/09/29 01:34:07;;;;;;;11.98;10.20;;;6.30;99.90;;;;;;5087086;28;20028;-74
2022/09/29 01:36:54;;;;;;;12.18;10.90;;;6.40;99.90;;;;;;5087108;28;20016;-74
2022/09/29 01:39:35;;;;;;;13.43;10.32;;;6.40;99.90;;;;;;5067405;28;20020;-74
2022/09/29 01:42:22;;;;;;;11.68;10.57;;;6.40;99.90;;;;;;5049531;28;20020;-74
2022/09/29 01:44:53;;;;;;;11.57;10.43;;;6.50;99.90;;;;;;5077416;28;20027;-72
2022/09/29 01:47:21;;;;;;;12.13;10.13;;;6.50;99.90;;;;;;5055410;28;20032;-73
2022/09/29 01:49:54;;;;;;;10.75;9.30;;;6.50;99.90;;;;;;5055468;28;20517;-73
2022/09/29 01:52:23;;;;;;;12.05;9.80;;;6.50;99.90;;;;;;5072344;28;20043;-73
2022/09/29 01:55:06;;;;;;;11.38;9.27;;;6.60;99.90;;;;;;5073454;28;20028;-73
2022/09/29 01:57:51;;;;;;;12.43;9.73;;;6.60;99.90;;;;;;5055050;28;20083;-73
2022/09/29 02:00:18;;;;;;;11.88;10.27;;;6.60;99.90;;;;;;5073315;28;20474;-73
2022/09/29 02:02:54;;;;;;;10.32;8.75;;;6.50;99.90;;;;;;5073121;28;20025;-72
2022/09/29 02:05:35;;;;;;;10.02;9.02;;;6.50;99.90;;;;;;5082660;28;20055;-73
2022/09/29 02:08:15;;;;;;;11.52;8.90;;;6.30;99.90;;;;;;5076470;28;20032;-73
2022/09/29 02:10:54;;;;;;;8.80;7.68;;;6.40;99.90;;;;;;5072426;28;20439;-73
2022/09/29 02:13:22;;;;;;;8.77;6.85;;;6.30;99.90;;;;;;5092828;28;20024;-73
2022/09/29 02:15:52;;;;;;;10.38;6.70;;;6.20;99.90;;;;;;5093116;28;20095;-73
2022/09/29 02:18:22;;;;;;;7.82;6.57;;;6.00;99.90;;;;;;5092939;28;20538;-73
2022/09/29 02:20:50;;;;;;;7.78;7.00;;;6.00;99.90;;;;;;5074580;28;20032;-73
2022/09/29 02:23:16;;;;;;;7.65;6.88;;;6.00;99.90;;;;;;5074760;28;20070;-73
2022/09/29 02:25:43;;;;;;;6.45;5.85;;;6.00;99.90;;;;;;5093107;28;20023;-73
2022/09/29 02:28:09;;;;;;;7.75;6.55;;;6.10;99.90;;;;;;5074578;28;20050;-73
2022/09/29 02:30:35;;;;;;;10.05;7.35;;;6.40;99.90;;;;;;5078180;28;20032;-73
2022/09/29 02:33:01;;;;;;;9.65;7.07;;;6.50;99.90;;;;;;5072363;28;20028;-73
2022/09/29 02:35:47;;;;;;;8.27;7.30;;;6.50;99.90;;;;;;5054475;28;20033;-73
2022/09/29 02:38:21;;;;;;;;;;;6.40;99.90;;;;;;5072915;28;20051;-72
2022/09/29 02:41:03;;;;;;;8.63;7.72;;;6.40;99.90;;;;;;5072325;28;20322;-73
2022/09/29 02:43:55;;;;;;;11.27;7.32;;;6.40;99.90;;;;;;5072403;28;20018;-73
2022/09/29 02:47:09;;;;;;;8.77;7.18;;;6.40;99.90;;;;;;5072520;28;20024;-73
2022/09/29 02:50:08;;;;;;;9.65;8.25;;;6.40;99.90;;;;;;5025516;28;20040;-73
2022/09/29 02:52:52;;;;;;;10.80;8.30;;;6.40;99.90;;;;;;5071937;28;20457;-74
2022/09/29 02:55:24;;;;;;;12.30;9.13;;;6.50;99.90;;;;;;5075686;28;20043;-74
2022/09/29 02:57:54;;;;;;;13.05;9.68;;;6.50;99.90;;;;;;5092133;28;20043;-74
2022/09/29 03:00:20;;;;;;;13.07;8.93;;;6.50;99.90;;;;;;5092218;28;20020;-73
2022/09/29 03:02:46;;;;;;;11.93;9.85;;;6.60;99.90;;;;;;5079982;28;20692;-74
2022/09/29 03:05:15;;;;;;;11.48;9.25;;;6.70;99.90;;;;;;5059473;28;20027;-74
2022/09/29 03:07:41;;;;;;;12.00;10.00;;;6.70;99.90;;;;;;5079448;28;20406;-74
2022/09/29 03:10:09;;;;;;;14.15;11.68;;;6.70;99.90;;;;;;5090643;28;20030;-73
2022/09/29 03:12:35;;;;;;;12.85;10.55;;;6.80;99.90;;;;;;5079614;28;20031;-75
2022/09/29 03:15:00;;;;;;;14.55;10.75;;;6.80;99.90;;;;;;5071822;28;20409;-74
2022/09/29 03:17:26;;;;;;;14.70;10.80;;;6.80;99.90;;;;;;5084260;28;20020;-75
2022/09/29 03:19:51;;;;;;;13.32;10.70;;;6.80;99.90;;;;;;5078434;28;20052;-74
2022/09/29 03:22:18;;;;;;;12.90;10.02;;;6.90;99.90;;;;;;5079362;28;20067;-74
2022/09/29 03:24:43;;;;;;;12.98;11.48;;;7.00;99.90;;;;;;5085418;28;20385;-75
2022/09/29 03:27:09;;;;;;;13.02;10.90;;;7.00;99.90;;;;;;5083703;28;20032;-75
2022/09/29 03:29:35;;;;;;;13.20;11.02;;;7.00;99.90;;;;;;5078247;28;20035;-74
2022/09/29 03:32:01;;;;;;;16.83;11.70;;;6.90;99.90;;;;;;5079636;28;20077;-74
2022/09/29 03:34:27;;;;;;;14.02;12.50;;;6.90;99.90;;;;;;5085263;28;20101;-75
2022/09/29 03:36:52;;;;;;;13.88;12.48;;;6.90;99.90;;;;;;5065134;28;20477;-74
2022/09/29 03:39:18;;;;;;;16.38;12.75;;;6.80;99.90;;;;;;5059848;28;20021;-75
2022/09/29 03:41:44;;;;;;;12.73;11.30;;;6.80;99.90;;;;;;5091864;28;20403;-75
2022/09/29 03:44:09;;;;;;;13.93;11.38;;;6.90;99.90;;;;;;5073201;28;20038;-74
2022/09/29 03:46:35;;;;;;;13.32;10.82;;;6.90;99.90;;;;;;5071354;28;20013;-74
2022/09/29 03:49:00;;;;;;;11.98;10.65;;;6.80;99.90;;;;;;5071180;28;20052;-74
2022/09/29 03:51:26;;;;;;;13.50;11.68;;;6.90;99.90;;;;;;5053432;28;20024;-74
2022/09/29 03:53:52;;;;;;;12.68;10.65;;;6.90;99.90;;;;;;5071185;28;20070;-74
2022/09/29 03:56:18;;;;;;;11.48;10.27;;;6.90;99.90;;;;;;5071592;28;20021;-74
2022/09/29 03:58:43;;;;;;;14.95;11.02;;;6.90;99.90;;;;;;5070637;28;20021;-74
2022/09/29 04:01:09;;;;;;;13.02;11.27;;;6.70;99.90;;;;;;5071243;28;20028;-73
2022/09/29 04:03:34;;;;;;;14.50;11.02;;;6.70;99.90;;;;;;5071045;28;20474;-75
2022/09/29 04:06:00;;;;;;;12.70;11.00;;;6.70;99.90;;;;;;5053158;28;20024;-76
2022/09/29 04:08:25;;;;;;;13.32;10.93;;;6.60;99.90;;;;;;5070568;28;20033;-75
2022/09/29 04:10:51;;;;;;;14.20;12.20;;;6.70;99.90;;;;;;5081942;28;20039;-75
2022/09/29 04:13:16;;;;;;;12.43;11.15;;;6.60;99.90;;;;;;5075491;28;20028;-75
2022/09/29 04:15:42;;;;;;;12.77;11.15;;;6.60;99.90;;;;;;5093663;28;20484;-74
2022/09/29 04:18:07;;;;;;;27.80;24.90;;;6.50;99.90;;;;;;5090918;28;20021;-75
2022/09/29 04:20:33;;;;;;;192.85;171.73;;;6.50;99.90;;;;;;5075362;28;20478;-74
2022/09/29 04:23:00;;;;;;;91.35;81.93;;;6.50;99.90;;;;;;5079924;28;20039;-75
2022/09/29 04:25:26;;;;;;;16.45;14.10;;;6.50;99.90;;;;;;5066399;28;20044;-75
2022/09/29 04:27:52;;;;;;;13.45;12.02;;;6.50;99.90;;;;;;5056437;28;20027;-75
2022/09/29 04:30:18;;;;;;;19.65;17.67;;;6.60;99.90;;;;;;5075004;28;20041;-74
2022/09/29 04:32:43;;;;;;;19.42;17.42;;;6.60;99.90;;;;;;5075126;28;20031;-74
2022/09/29 04:35:09;;;;;;;19.25;14.05;;;6.60;99.90;;;;;;5075271;28;20033;-74
2022/09/29 04:37:35;;;;;;;20.67;18.23;;;6.70;99.90;;;;;;5074872;28;20373;-74
2022/09/29 04:40:02;;;;;;;18.13;15.45;;;6.80;99.90;;;;;;5075073;28;20059;-75
2022/09/29 04:42:28;;;;;;;18.30;15.25;;;6.80;99.90;;;;;;5074861;28;20058;-74
2022/09/29 04:44:53;;;;;;;20.85;18.23;;;6.80;99.90;;;;;;5057066;28;20751;-74
2022/09/29 04:47:19;;;;;;;27.67;24.70;;;6.80;99.90;;;;;;5088301;28;20452;-74
2022/09/29 04:49:44;;;;;;;35.65;31.90;;;6.50;99.90;;;;;;5074897;28;20021;-74
2022/09/29 04:52:11;;;;;;;33.42;29.77;;;6.50;99.90;;;;;;5075685;28;20032;-74
2022/09/29 04:54:37;;;;;;;29.30;25.80;;;6.60;99.90;;;;;;5075037;28;20515;-74
2022/09/29 04:57:03;;;;;;;31.83;27.58;;;6.60;99.90;;;;;;5063305;28;20040;-74
2022/09/29 04:59:28;;;;;;;27.20;24.33;;;6.70;99.90;;;;;;5074758;28;20028;-73
2022/09/29 05:01:54;;;;;;;21.95;19.65;;;6.70;99.90;;;;;;5074209;28;20031;-74
2022/09/29 05:04:20;;;;;;;22.88;20.48;;;6.60;99.90;;;;;;5074362;28;20028;-74
2022/09/29 05:06:46;;;;;;;20.58;18.38;;;6.50;99.90;;;;;;5078003;28;20039;-75
2022/09/29 05:09:12;;;;;;;21.08;17.95;;;6.60;99.90;;;;;;5074539;28;20410;-75
2022/09/29 05:11:38;;;;;;;19.88;17.02;;;6.60;99.90;;;;;;5079028;28;20032;-74
2022/09/29 05:14:04;;;;;;;22.45;18.92;;;6.60;99.90;;;;;;5083929;28;20033;-74
2022/09/29 05:16:30;;;;;;;20.55;18.45;;;6.60;99.90;;;;;;5088203;28;20028;-74
2022/09/29 05:18:56;;;;;;;19.08;17.27;;;6.60;99.90;;;;;;5085349;28;20059;-75
2022/09/29 05:21:21;;;;;;;21.25;15.80;;;6.60;99.90;;;;;;5081064;28;20048;-75
2022/09/29 05:23:47;;;;;;;18.90;15.52;;;6.60;99.90;;;;;;5083687;28;20429;-75
2022/09/29 05:26:13;;;;;;;18.35;14.55;;;6.70;99.90;;;;;;5086385;28;20086;-75
2022/09/29 05:28:43;;;;;;;14.63;13.10;;;6.80;99.90;;;;;;5085064;28;20740;-75
2022/09/29 05:31:09;;;;;;;12.20;10.88;;;6.80;99.90;;;;;;5081002;28;20024;-76
2022/09/29 05:33:35;;;;;;;18.30;14.55;;;6.80;99.90;;;;;;5090856;28;20024;-74
2022/09/29 05:36:06;;;;;;;24.85;19.00;;;6.80;99.90;;;;;;5078667;28;20024;-76
2022/09/29 05:38:31;;;;;;;20.40;14.20;;;6.70;99.90;;;;;;5081881;28;20023;-75
2022/09/29 05:40:57;;;;;;;14.48;12.40;;;6.60;99.90;;;;;;5087660;28;20025;-75
2022/09/29 05:43:24;;;;;;;16.50;14.80;;;6.80;99.90;;;;;;5085901;28;20027;-74
2022/09/29 05:45:49;;;;;;;19.25;16.10;;;6.70;99.90;;;;;;5080641;28;20039;-75
2022/09/29 05:48:16;;;;;;;19.63;17.25;;;6.40;99.90;;;;;;5082204;28;20028;-75
2022/09/29 05:50:42;;;;;;;18.98;16.48;;;6.30;99.90;;;;;;5069500;28;20374;-75
2022/09/29 05:53:08;;;;;;;21.95;17.90;;;6.40;99.90;;;;;;5085824;28;20038;-76
2022/09/29 05:55:37;;;;;;;19.20;16.45;;;6.50;99.90;;;;;;5062313;28;20054;-75
2022/09/29 05:58:04;;;;;;;22.98;20.77;;;6.60;99.90;;;;;;5081394;28;20044;-74
2022/09/29 06:00:30;;;;;;;20.30;18.23;;;6.70;99.90;;;;;;5069167;28;20107;-74
2022/09/29 06:02:58;;;;;;;20.23;18.00;;;6.90;99.90;;;;;;5086116;28;20020;-75
2022/09/29 06:05:25;;;;;;;20.52;18.30;;;6.90;99.90;;;;;;5074304;28;20555;-75
2022/09/29 06:07:51;;;;;;;20.45;18.33;;;6.80;99.90;;;;;;5068900;28;20041;-74
2022/09/29 06:10:16;;;;;;;17.15;15.40;;;7.00;99.90;;;;;;5080480;28;20024;-76
2022/09/29 06:12:42;;;;;;;18.85;15.93;;;7.00;99.90;;;;;;5080097;28;20509;-75
2022/09/29 06:15:08;;;;;;;23.00;16.67;;;7.10;99.90;;;;;;5086824;28;20067;-74
2022/09/29 06:17:34;;;;;;;18.60;15.65;;;7.10;99.90;;;;;;5073204;28;20020;-74
2022/09/29 06:20:00;;;;;;;16.77;14.55;;;7.10;99.90;;;;;;5073635;28;20024;-81
2022/09/29 06:22:26;;;;;;;15.82;14.18;;;7.30;99.90;;;;;;5090389;28;20035;-78
2022/09/29 06:24:53;;;;;;;17.50;13.35;;;7.30;99.90;;;;;;5086820;28;20481;-74
2022/09/29 06:27:19;;;;;;;20.90;16.67;;;7.30;99.90;;;;;;5086463;28;20024;-74
2022/09/29 06:29:44;;;;;;;22.58;19.23;;;7.40;99.90;;;;;;5080841;28;20028;-75
2022/09/29 06:32:10;;;;;;;33.28;23.52;;;7.50;99.90;;;;;;5079870;28;20116;-74
2022/09/29 06:37:33;;;;;;;82.63;53.35;;;7.60;99.90;;;;;;5083450;28;20460;-73
2022/09/29 06:37:38;;;;;;;76.43;48.60;;;7.60;99.90;;;;;;5079167;28;20020;-74
2022/09/29 06:40:07;;;;;;;34.42;26.38;;;7.60;99.90;;;;;;5081009;28;20112;-73
2022/09/29 06:42:33;;;;;;;25.13;19.55;;;7.60;99.90;;;;;;5087749;28;20107;-74
2022/09/29 06:44:59;;;;;;;15.18;13.27;;;7.60;99.90;;;;;;5086460;28;20024;-74
2022/09/29 06:47:24;;;;;;;18.88;13.63;;;7.80;99.90;;;;;;5068263;28;20077;-73
2022/09/29 06:49:50;;;;;;;15.73;12.40;;;7.80;99.90;;;;;;5063301;28;20119;-74
2022/09/29 06:52:17;;;;;;;14.32;12.07;;;7.90;99.90;;;;;;5072305;28;20035;-73
2022/09/29 06:54:42;;;;;;;15.23;10.95;;;7.90;99.90;;;;;;5061328;28;20021;-73
2022/09/29 06:57:08;;;;;;;12.15;10.80;;;8.00;99.90;;;;;;5086596;28;20020;-74
2022/09/29 06:59:34;;;;;;;12.27;10.43;;;8.10;99.90;;;;;;5080404;28;20028;-74
2022/09/29 07:02:00;;;;;;;12.52;11.05;;;8.10;99.90;;;;;;5082993;28;20032;-74
2022/09/29 07:04:26;;;;;;;12.70;10.65;;;8.10;99.90;;;;;;5080724;28;20032;-73
2022/09/29 07:06:52;;;;;;;15.60;10.85;;;8.20;99.90;;;;;;5077838;28;20024;-74
2022/09/29 07:09:19;;;;;;;18.23;12.20;;;8.10;99.90;;;;;;5062934;28;20016;-73
2022/09/29 07:11:48;;;;;;;13.43;12.05;;;7.90;99.90;;;;;;5051351;28;20413;-73
2022/09/29 07:14:14;;;;;;;14.18;11.43;;;8.00;99.90;;;;;;5085270;28;20504;-73
2022/09/29 07:16:40;;;;;;;15.13;10.32;;;8.20;99.90;;;;;;5058580;28;20032;-74
2022/09/29 07:19:06;;;;;;;15.73;10.95;;;8.40;99.90;;;;;;5072038;28;20025;-74
2022/09/29 07:21:31;;;;;;;14.13;10.35;;;8.50;99.90;;;;;;5077753;28;20386;-74
2022/09/29 07:23:57;;;;;;;13.30;10.07;;;8.60;99.90;;;;;;5061833;28;20020;-73
2022/09/29 07:26:23;;;;;;;13.18;11.05;;;8.70;99.90;;;;;;5067674;28;20036;-74
2022/09/29 07:28:48;;;;;;;11.70;10.02;;;8.80;99.90;;;;;;5071773;28;20137;-73
2022/09/29 07:31:19;;;;;;;13.57;10.68;;;8.60;99.90;;;;;;5077302;28;20032;-75
2022/09/29 07:33:46;;;;;;;13.95;10.18;;;8.70;99.90;;;;;;5073864;28;20486;-74
2022/09/29 07:36:13;;;;;;;11.38;9.15;;;8.80;99.90;;;;;;5092154;28;20038;-75
2022/09/29 07:38:39;;;;;;;11.98;9.40;;;9.00;99.90;;;;;;5091885;28;20024;-75
2022/09/29 07:41:10;;;;;;;13.70;9.13;;;9.20;99.90;;;;;;5066908;28;20043;-74
2022/09/29 07:43:36;;;;;;;13.25;9.50;;;9.20;99.90;;;;;;5072431;28;20099;-75
2022/09/29 07:46:03;;;;;;;12.35;8.98;;;9.10;99.90;;;;;;5091859;28;20043;-75
2022/09/29 07:48:30;;;;;;;14.38;9.05;;;9.00;99.90;;;;;;5073506;28;20024;-74
2022/09/29 07:51:16;;;;;;;12.02;8.77;;;9.20;99.90;;;;;;5083119;28;20363;-76
2022/09/29 07:53:42;;;;;;;;;;;9.50;99.90;;;;;;5071948;28;20025;-76
2022/09/29 07:56:10;;;;;;;11.90;10.13;;;9.60;99.90;;;;;;5084092;28;20320;-76
2022/09/29 07:58:36;;;;;;;12.43;9.77;;;9.60;99.90;;;;;;5072510;28;20032;-75
2022/09/29 08:01:05;;;;;;;11.65;8.50;;;9.60;99.90;;;;;;5062514;28;20059;-76
2022/09/29 08:03:31;;;;;;;13.43;9.20;;;9.70;99.90;;;;;;5066899;28;20128;-75
2022/09/29 08:05:58;;;;;;;9.23;8.27;;;9.70;99.90;;;;;;5071559;28;20452;-76
2022/09/29 08:08:24;;;;;;;11.20;8.25;;;9.60;99.90;;;;;;5084534;28;20411;-75
2022/09/29 08:10:49;;;;;;;11.52;8.60;;;9.70;99.90;;;;;;5064498;28;20028;-76
2022/09/29 08:13:16;;;;;;;11.23;8.60;;;9.70;99.90;;;;;;5072417;28;20030;-75
2022/09/29 08:15:41;;;;;;;12.05;9.25;;;9.60;99.90;;;;;;5053504;28;20024;-76
2022/09/29 08:18:07;;;;;;;12.27;8.70;;;9.60;99.90;;;;;;5053377;28;20025;-75
2022/09/29 08:20:34;;;;;;;14.35;8.32;;;9.60;99.90;;;;;;5082066;28;20028;-75
2022/09/29 08:23:00;;;;;;;15.38;8.93;;;9.60;99.90;;;;;;5078030;28;20105;-75
2022/09/29 08:25:25;;;;;;;11.23;8.57;;;9.60;99.90;;;;;;5080273;28;20056;-76
2022/09/29 08:27:52;;;;;;;10.40;8.43;;;9.60;99.90;;;;;;5066617;28;20512;-75
2022/09/29 08:30:17;;;;;;;13.40;8.98;;;9.80;99.90;;;;;;5082726;28;20024;-75
2022/09/29 08:32:44;;;;;;;10.00;8.07;;;9.90;99.90;;;;;;5077950;28;20358;-76
2022/09/29 08:35:09;;;;;;;9.88;8.43;;;10.00;99.90;;;;;;5061993;28;20031;-75
2022/09/29 08:37:35;;;;;;;9.48;8.27;;;10.10;99.90;;;;;;5072227;28;20020;-77
2022/09/29 08:40:01;;;;;;;10.77;9.20;;;10.00;99.90;;;;;;5080158;28;20024;-75
2022/09/29 08:42:51;;;;;;;10.73;8.68;;;10.10;99.90;;;;;;5066701;28;20029;-75
2022/09/29 08:45:34;;;;;;;10.65;8.52;;;10.20;99.90;;;;;;5092863;28;20024;-77
2022/09/29 08:48:12;;;;;;;12.05;8.48;;;10.30;99.90;;;;;;5070949;28;20033;-75
2022/09/29 08:50:46;;;;;;;10.40;7.90;;;10.30;99.90;;;;;;5070986;28;20124;-76
2022/09/29 08:53:16;;;;;;;14.40;8.95;;;10.30;99.90;;;;;;5084333;28;20052;-75
2022/09/29 08:55:47;;;;;;;16.27;11.40;;;10.50;99.90;;;;;;5066395;28;20025;-75
2022/09/29 08:58:15;;;;;;;11.65;9.63;;;10.50;99.90;;;;;;5063863;28;20020;-75
2022/09/29 09:00:56;;;;;;;13.88;8.43;;;10.70;99.90;;;;;;5079811;28;20016;-75
2022/09/29 09:03:29;;;;;;;12.13;8.15;;;10.90;99.90;;;;;;5078046;28;20478;-75
2022/09/29 09:06:30;;;;;;;11.45;7.97;;;11.00;99.90;;;;;;5085858;28;20107;-75
2022/09/29 09:09:26;;;;;;;12.43;8.18;;;10.70;99.90;;;;;;5063513;28;20153;-75
2022/09/29 09:12:39;;;;;;;10.70;7.90;;;10.60;99.90;;;;;;5085384;28;20028;-75
2022/09/29 09:15:34;;;;;;;11.00;8.10;;;10.80;99.90;;;;;;5018485;28;20025;-75
2022/09/29 09:18:30;;;;;;;11.25;7.40;;;10.80;99.90;;;;;;5011798;28;20043;-75
2022/09/29 09:21:09;;;;;;;11.50;9.73;;;11.00;99.90;;;;;;5062860;28;20029;-76
2022/09/29 09:23:55;;;;;;;10.13;6.95;;;11.10;99.90;;;;;;5065671;28;20021;-76
2022/09/29 09:26:34;;;;;;;10.43;8.35;;;11.00;99.90;;;;;;5070480;28;20700;-75
2022/09/29 09:29:20;;;;;;;9.55;7.72;;;11.30;99.90;;;;;;5074009;28;20380;-75
2022/09/29 09:31:56;;;;;;;10.02;7.03;;;11.50;99.90;;;;;;5056076;28;20404;-75
2022/09/29 09:34:38;;;;;;;9.32;6.45;;;11.60;99.90;;;;;;5073189;28;20029;-75
2022/09/29 09:37:12;;;;;;;11.95;6.10;;;11.50;99.90;;;;;;5061268;28;20028;-75
2022/09/29 09:40:08;;;;;;;7.80;5.80;;;11.60;99.90;;;;;;5074036;28;20028;-75
2022/09/29 09:42:38;;;;;;;11.68;5.88;;;11.80;99.90;;;;;;5079753;28;20023;-75
2022/09/29 09:45:07;;;;;;;7.13;5.10;;;12.00;99.90;;;;;;5094588;28;20573;-75
2022/09/29 09:48:07;;;;;;;9.07;5.38;;;11.90;99.90;;;;;;5069062;28;20147;-75
2022/09/29 09:50:36;;;;;;;8.45;5.45;;;11.90;99.90;;;;;;5021345;28;20577;-75
2022/09/29 09:53:10;;;;;;;8.98;5.90;;;11.90;99.90;;;;;;5073717;28;20085;-75
2022/09/29 09:55:36;;;;;;;6.38;4.65;;;12.00;99.90;;;;;;5073687;28;20024;-74
2022/09/29 09:58:28;;;;;;;12.38;5.60;;;12.00;99.90;;;;;;5073454;28;20500;-74
2022/09/29 10:01:01;;;;;;;8.23;5.20;;;11.80;99.90;;;;;;5073623;28;20433;-75
2022/09/29 10:03:28;;;;;;;8.50;4.90;;;11.60;99.90;;;;;;5077423;28;20028;-75
2022/09/29 10:05:54;;;;;;;8.07;5.05;;;11.80;99.90;;;;;;5081033;28;20031;-75
2022/09/29 10:08:25;;;;;;;7.35;5.05;;;11.70;99.90;;;;;;5055907;28;20063;-75
2022/09/29 10:10:51;;;;;;;7.22;4.38;;;11.90;99.90;;;;;;5067160;28;20401;-75
2022/09/29 10:13:17;;;;;;;7.97;5.15;;;12.10;99.90;;;;;;5071998;28;20032;-75
2022/09/29 10:16:16;;;;;;;5.32;3.72;;;12.00;99.90;;;;;;5084047;28;20024;-75
2022/09/29 10:18:47;;;;;;;7.20;4.50;;;12.30;99.90;;;;;;5040945;28;20032;-75
2022/09/29 10:21:35;;;;;;;7.60;4.28;;;12.20;99.90;;;;;;5087362;28;20506;-75
2022/09/29 10:24:03;;;;;;;9.35;3.80;;;12.20;99.90;;;;;;5073193;28;20067;-75
2022/09/29 10:26:38;;;;;;;6.53;3.78;;;12.20;99.90;;;;;;5072982;28;20275;-76
2022/09/29 10:29:17;;;;;;;7.65;3.70;;;12.30;99.90;;;;;;5072948;28;20082;-75
2022/09/29 10:31:55;;;;;;;4.15;3.28;;;12.40;99.90;;;;;;5072997;28;20103;-75
2022/09/29 10:34:24;;;;;;;5.95;4.00;;;12.80;99.90;;;;;;5072908;28;20025;-74
2022/09/29 10:37:05;;;;;;;7.47;3.67;;;12.80;99.90;;;;;;5084028;28;20031;-75
2022/09/29 10:39:41;;;;;;;8.30;4.05;;;13.00;99.90;;;;;;5067205;28;20036;-75
2022/09/29 10:42:23;;;;;;;4.68;3.50;;;12.80;99.90;;;;;;5061303;28;20024;-74
2022/09/29 10:45:16;;;;;;;7.28;3.35;;;12.60;99.90;;;;;;5064698;28;20078;-74
2022/09/29 10:47:58;;;;;;;6.80;3.75;;;12.10;99.90;;;;;;5061964;28;20111;-75
2022/09/29 10:50:28;;;;;;;8.77;3.70;;;12.00;99.90;;;;;;5058167;28;20119;-75
2022/09/29 10:52:59;;;;;;;4.18;3.40;;;12.10;99.90;;;;;;5054669;28;20032;-75
2022/09/29 10:55:26;;;;;;;6.22;3.45;;;12.20;99.90;;;;;;5086073;28;20498;-74
2022/09/29 10:57:55;;;;;;;4.28;3.40;;;12.50;99.90;;;;;;5054221;28;20507;-75
2022/09/29 11:00:31;;;;;;;4.60;3.70;;;13.00;99.90;;;;;;5067744;28;20135;-75
2022/09/29 11:03:19;;;;;;;7.68;4.60;;;13.20;99.90;;;;;;5072151;28;20029;-75
2022/09/29 11:06:10;;;;;;;8.85;4.13;;;13.30;99.90;;;;;;5045860;28;20039;-75
2022/09/29 11:08:56;;;;;;;5.22;3.17;;;13.30;99.90;;;;;;5078380;28;20100;-75
2022/09/29 11:11:29;;;;;;;5.03;3.40;;;13.30;99.90;;;;;;5076353;28;20115;-76
2022/09/29 11:13:56;;;;;;;7.75;4.00;;;13.20;99.90;;;;;;5072094;28;20029;-75
2022/09/29 11:16:52;;;;;;;4.72;3.30;;;13.20;99.90;;;;;;5075425;28;20481;-76
2022/09/29 11:19:17;;;;;;;4.10;2.97;;;13.10;99.90;;;;;;5068546;28;20029;-74
2022/09/29 11:22:08;;;;;;;4.97;2.53;;;13.40;99.90;;;;;;5071659;28;20036;-75
2022/09/29 11:24:50;;;;;;;4.85;2.80;;;13.60;99.90;;;;;;5071779;28;20032;-75
2022/09/29 11:28:00;;;;;;;6.68;3.25;;;13.80;99.90;;;;;;5071793;28;20557;-75
2022/09/29 11:30:35;;;;;;;6.50;2.60;;;13.80;99.90;;;;;;5009801;28;20029;-74
2022/09/29 11:33:25;;;;;;;5.03;2.40;;;13.90;99.90;;;;;;5069468;28;20493;-75
2022/09/29 11:36:02;;;;;;;3.17;2.45;;;14.10;99.90;;;;;;5073887;28;20038;-75
2022/09/29 11:38:57;;;;;;;5.95;2.20;;;13.90;99.90;;;;;;5079953;28;20056;-75
2022/09/29 11:41:46;;;;;;;5.63;2.65;;;13.80;99.90;;;;;;5071573;28;20123;-75
2022/09/29 11:44:33;;;;;;;5.63;2.83;;;13.70;99.90;;;;;;5053475;28;20028;-75
2022/09/29 11:47:28;;;;;;;3.22;2.47;;;13.80;99.90;;;;;;5053568;28;20029;-75
2022/09/29 11:50:12;;;;;;;3.88;2.67;;;14.30;99.90;;;;;;5052077;28;20141;-75
2022/09/29 11:52:49;;;;;;;5.82;2.70;;;15.00;99.90;;;;;;5079781;28;20031;-75
2022/09/29 11:55:32;;;;;;;3.50;2.65;;;14.80;99.90;;;;;;5078243;28;20133;-76
2022/09/29 11:58:14;;;;;;;4.65;2.58;;;14.80;99.90;;;;;;5073520;28;20021;-75
2022/09/29 12:00:59;;;;;;;5.05;2.40;;;14.80;99.90;;;;;;5048372;28;20110;-75
2022/09/29 12:03:51;;;;;;;6.25;2.80;;;15.00;99.90;;;;;;5075025;28;20021;-75
2022/09/29 12:06:41;;;;;;;5.47;2.72;;;14.90;99.90;;;;;;5072098;28;20021;-75
2022/09/29 12:09:32;;;;;;;5.57;2.30;;;14.50;99.90;;;;;;5080832;28;20029;-75
2022/09/29 12:12:01;;;;;;;4.95;2.30;;;14.30;99.90;;;;;;5065760;28;20032;-75
2022/09/29 12:14:45;;;;;;;6.03;2.00;;;14.40;99.90;;;;;;5078171;28;20047;-76
2022/09/29 12:17:16;;;;;;;5.03;2.05;;;14.10;99.90;;;;;;5080101;28;20025;-75
2022/09/29 12:19:43;;;;;;;8.60;2.55;;;13.80;99.90;;;;;;5088868;28;20526;-74
2022/09/29 12:22:13;;;;;;;4.05;2.22;;;13.80;99.90;;;;;;5080408;28;20070;-75
2022/09/29 12:24:49;;;;;;;4.35;2.08;;;13.90;99.90;;;;;;5085528;28;20029;-75
2022/09/29 12:27:37;;;;;;;4.57;2.38;;;14.10;99.90;;;;;;5084220;28;20377;-75
2022/09/29 12:30:14;;;;;;;3.92;1.92;;;15.00;99.90;;;;;;5051744;28;20400;-75
2022/09/29 12:32:52;;;;;;;7.97;2.28;;;15.40;99.90;;;;;;5059881;28;20028;-75
2022/09/29 12:35:32;;;;;;;3.50;2.33;;;15.80;99.90;;;;;;5079827;28;20055;-75
2022/09/29 12:38:14;;;;;;;4.13;2.45;;;15.50;99.90;;;;;;5069598;28;20559;-76
2022/09/29 12:41:09;;;;;;;5.80;2.88;;;14.70;99.90;;;;;;5063773;28;20021;-75
2022/09/29 12:43:55;;;;;;;3.53;2.17;;;14.20;99.90;;;;;;5081995;28;20482;-75
2022/09/29 12:46:38;;;;;;;5.13;3.33;;;14.40;99.90;;;;;;5074076;28;20032;-75
2022/09/29 12:49:23;;;;;;;5.15;2.75;;;14.20;99.90;;;;;;5081753;28;20294;-75
2022/09/29 12:51:51;;;;;;;5.55;3.00;;;14.10;99.90;;;;;;5080720;28;20029;-74
2022/09/29 12:54:32;;;;;;;4.78;2.70;;;14.10;99.90;;;;;;5074964;28;20085;-73
2022/09/29 12:57:10;;;;;;;4.10;2.65;;;13.70;99.90;;;;;;5073544;28;20134;-75
2022/09/29 12:59:58;;;;;;;5.07;2.78;;;13.80;99.90;;;;;;5095190;28;20024;-75
2022/09/29 13:02:42;;;;;;;5.65;3.10;;;13.50;99.90;;;;;;5086905;28;20078;-75
2022/09/29 13:05:29;;;;;;;6.50;2.50;;;13.30;99.90;;;;;;5061347;28;20031;-75
2022/09/29 13:07:54;;;;;;;4.00;2.83;;;13.50;99.90;;;;;;5075932;28;20020;-75
2022/09/29 13:10:32;;;;;;;3.97;2.30;;;13.60;99.90;;;;;;5074675;28;20107;-74